createdAt,value
2018-04-30T00:00:03.049Z,0
2018-04-30T00:01:12.733Z,0
2018-04-30T00:02:22.395Z,0
2018-04-30T00:03:31.544Z,0
2018-04-30T00:04:40.702Z,0
2018-04-30T00:05:50.384Z,0
2018-04-30T00:06:59.800Z,0
2018-04-30T00:08:09.477Z,0
2018-04-30T00:09:18.907Z,0
2018-04-30T00:10:28.332Z,0
2018-04-30T00:11:37.501Z,0
2018-04-30T00:12:46.646Z,0
2018-04-30T00:13:56.317Z,0
2018-04-30T00:15:05.718Z,0
2018-04-30T00:16:15.501Z,0
2018-04-30T00:17:24.912Z,0
2018-04-30T00:18:34.328Z,0
2018-04-30T00:19:43.478Z,0
2018-04-30T00:20:52.640Z,0
2018-04-30T00:22:01.790Z,0
2018-04-30T00:23:11.452Z,0
2018-04-30T00:24:20.849Z,0
2018-04-30T00:25:29.995Z,0
2018-04-30T00:26:39.421Z,0
2018-04-30T00:27:49.359Z,0
2018-04-30T00:28:58.776Z,0
2018-04-30T00:30:07.939Z,0
2018-04-30T00:31:16.839Z,0
2018-04-30T00:32:25.750Z,0
2018-04-30T00:33:35.519Z,0
2018-04-30T00:34:44.947Z,0
2018-04-30T00:35:54.375Z,0
2018-04-30T00:37:04.050Z,0
2018-04-30T00:38:13.468Z,0
2018-04-30T00:39:23.156Z,0
2018-04-30T00:40:32.118Z,0
2018-04-30T00:41:41.538Z,0
2018-04-30T00:42:50.946Z,0
2018-04-30T00:44:00.367Z,0
2018-04-30T00:45:09.545Z,0
2018-04-30T00:46:18.701Z,0
2018-04-30T00:47:27.598Z,0
2018-04-30T00:48:37.013Z,0
2018-04-30T00:49:46.415Z,0
2018-04-30T00:50:55.917Z,0
2018-04-30T00:52:05.355Z,0
2018-04-30T00:53:14.765Z,0
2018-04-30T00:54:23.919Z,0
2018-04-30T00:55:33.073Z,0
2018-04-30T00:56:42.506Z,0
2018-04-30T00:57:51.937Z,0
2018-04-30T00:59:01.629Z,0
2018-04-30T01:00:10.531Z,0
2018-04-30T01:01:19.962Z,0
2018-04-30T01:02:29.400Z,0
2018-04-30T01:03:38.670Z,0
2018-04-30T01:04:48.094Z,0
2018-04-30T01:05:57.275Z,0
2018-04-30T01:07:06.962Z,0
2018-04-30T01:08:16.625Z,0
2018-04-30T01:09:26.050Z,0
2018-04-30T01:10:34.969Z,0
2018-04-30T01:11:44.486Z,0
2018-04-30T01:12:53.636Z,0
2018-04-30T01:14:03.071Z,0
2018-04-30T01:15:12.491Z,0
2018-04-30T01:16:21.636Z,0
2018-04-30T01:17:31.059Z,0
2018-04-30T01:18:39.982Z,0
2018-04-30T01:19:49.148Z,0
2018-04-30T01:20:58.053Z,0
2018-04-30T01:22:07.469Z,0
2018-04-30T01:23:17.174Z,0
2018-04-30T01:24:26.317Z,0
2018-04-30T01:25:35.725Z,0
2018-04-30T01:26:45.457Z,0
2018-04-30T01:27:55.391Z,0
2018-04-30T01:29:04.560Z,0
2018-04-30T01:30:13.965Z,0
2018-04-30T01:31:23.389Z,0
2018-04-30T01:32:33.377Z,0
2018-04-30T01:33:43.091Z,0
2018-04-30T01:34:53.023Z,0
2018-04-30T01:36:02.429Z,0
2018-04-30T01:37:11.330Z,0
2018-04-30T01:38:20.494Z,0
2018-04-30T01:39:29.661Z,0
2018-04-30T01:40:39.341Z,0
2018-04-30T01:41:48.775Z,0
2018-04-30T01:42:58.242Z,0
2018-04-30T01:44:07.446Z,0
2018-04-30T01:45:17.362Z,0
2018-04-30T01:46:26.801Z,0
2018-04-30T01:47:36.228Z,0
2018-04-30T01:48:45.386Z,0
2018-04-30T01:49:55.314Z,0
2018-04-30T01:51:04.718Z,0
2018-04-30T01:52:13.612Z,0
2018-04-30T01:53:23.310Z,0
2018-04-30T01:54:32.537Z,0
2018-04-30T01:55:41.961Z,0
2018-04-30T01:56:51.623Z,0
2018-04-30T01:58:01.282Z,0
2018-04-30T01:59:10.740Z,0
2018-04-30T02:00:19.890Z,0
2018-04-30T02:01:29.315Z,0
2018-04-30T02:02:38.994Z,0
2018-04-30T02:03:48.414Z,0
2018-04-30T02:04:58.085Z,0
2018-04-30T02:06:07.260Z,0
2018-04-30T02:07:16.432Z,0
2018-04-30T02:08:25.355Z,0
2018-04-30T02:09:35.021Z,0
2018-04-30T02:10:44.688Z,0
2018-04-30T02:11:54.106Z,0
2018-04-30T02:13:03.289Z,0
2018-04-30T02:14:12.789Z,0
2018-04-30T02:15:21.677Z,0
2018-04-30T02:16:30.856Z,0
2018-04-30T02:17:40.273Z,0
2018-04-30T02:18:49.181Z,0
2018-04-30T02:19:58.586Z,0
2018-04-30T02:21:08.254Z,0
2018-04-30T02:22:17.679Z,0
2018-04-30T02:23:27.094Z,0
2018-04-30T02:24:36.249Z,0
2018-04-30T02:25:45.414Z,0
2018-04-30T02:26:55.348Z,0
2018-04-30T02:28:04.995Z,0
2018-04-30T02:29:14.403Z,0
2018-04-30T02:30:24.345Z,0
2018-04-30T02:31:34.307Z,0
2018-04-30T02:32:43.466Z,0
2018-04-30T02:33:53.412Z,0
2018-04-30T02:35:03.082Z,0
2018-04-30T02:36:12.228Z,0
2018-04-30T02:37:21.683Z,0
2018-04-30T02:38:31.660Z,0
2018-04-30T02:39:41.363Z,0
2018-04-30T02:40:50.773Z,0
2018-04-30T02:42:00.456Z,0
2018-04-30T02:43:10.135Z,0
2018-04-30T02:44:20.093Z,0
2018-04-30T02:45:29.780Z,0
2018-04-30T02:46:39.481Z,0
2018-04-30T02:47:49.175Z,0
2018-04-30T02:48:58.593Z,0
2018-04-30T02:50:08.342Z,0
2018-04-30T02:51:18.095Z,0
2018-04-30T02:52:27.522Z,0
2018-04-30T02:53:37.215Z,0
2018-04-30T02:54:47.172Z,0
2018-04-30T02:55:56.607Z,0
2018-04-30T02:57:05.827Z,0
2018-04-30T02:58:15.514Z,0
2018-04-30T02:59:24.983Z,0
2018-04-30T03:00:34.421Z,0
2018-04-30T03:01:44.097Z,0
2018-04-30T03:02:53.004Z,0
2018-04-30T03:04:02.673Z,0
2018-04-30T03:05:12.632Z,0
2018-04-30T03:06:22.035Z,0
2018-04-30T03:07:31.437Z,0
2018-04-30T03:08:41.379Z,0
2018-04-30T03:09:50.763Z,0
2018-04-30T03:11:00.594Z,0
2018-04-30T03:12:10.033Z,0
2018-04-30T03:13:19.969Z,0
2018-04-30T03:14:29.643Z,0
2018-04-30T03:15:39.584Z,0
2018-04-30T03:16:48.996Z,0
2018-04-30T03:17:58.417Z,0
2018-04-30T03:19:07.317Z,0
2018-04-30T03:20:17.256Z,0
2018-04-30T03:21:26.143Z,0
2018-04-30T03:22:34.768Z,0
2018-04-30T03:23:44.478Z,0
2018-04-30T03:24:53.126Z,0
2018-04-30T03:26:02.821Z,0
2018-04-30T03:27:12.257Z,0
2018-04-30T03:28:21.409Z,0
2018-04-30T03:29:31.074Z,0
2018-04-30T03:30:40.754Z,0
2018-04-30T03:31:50.731Z,0
2018-04-30T03:33:00.171Z,0
2018-04-30T03:34:09.588Z,0
2018-04-30T03:35:19.520Z,0
2018-04-30T03:36:28.701Z,0
2018-04-30T03:37:38.164Z,0
2018-04-30T03:38:47.072Z,0
2018-04-30T03:39:55.981Z,0
2018-04-30T03:41:05.655Z,0
2018-04-30T03:42:15.594Z,0
2018-04-30T03:43:24.746Z,0
2018-04-30T03:44:34.488Z,0
2018-04-30T03:45:43.702Z,0
2018-04-30T03:46:52.854Z,0
2018-04-30T03:48:02.776Z,0
2018-04-30T03:49:11.675Z,0
2018-04-30T03:50:21.113Z,0
2018-04-30T03:51:30.013Z,0
2018-04-30T03:52:39.680Z,0
2018-04-30T03:53:49.378Z,0
2018-04-30T03:54:58.537Z,0
2018-04-30T03:56:07.686Z,0
2018-04-30T03:57:17.082Z,0
2018-04-30T03:58:25.987Z,0
2018-04-30T03:59:35.132Z,0
2018-04-30T04:00:44.552Z,0
2018-04-30T04:01:53.707Z,0
2018-04-30T04:03:02.964Z,0
2018-04-30T04:04:12.217Z,0
2018-04-30T04:05:21.371Z,0
2018-04-30T04:06:31.058Z,0
2018-04-30T04:07:40.460Z,0
2018-04-30T04:08:50.194Z,0
2018-04-30T04:09:59.859Z,0
2018-04-30T04:11:09.276Z,0
2018-04-30T04:12:18.673Z,0
2018-04-30T04:13:27.834Z,0
2018-04-30T04:14:36.731Z,0
2018-04-30T04:15:46.736Z,0
2018-04-30T04:16:55.866Z,0
2018-04-30T04:18:05.546Z,0
2018-04-30T04:19:14.762Z,0
2018-04-30T04:20:24.463Z,0
2018-04-30T04:21:34.450Z,0
2018-04-30T04:22:43.613Z,0
2018-04-30T04:23:52.775Z,0
2018-04-30T04:25:02.456Z,0
2018-04-30T04:26:12.110Z,0
2018-04-30T04:27:21.318Z,0
2018-04-30T04:28:30.996Z,0
2018-04-30T04:29:40.411Z,0
2018-04-30T04:30:50.076Z,0
2018-04-30T04:31:59.507Z,0
2018-04-30T04:33:08.682Z,0
2018-04-30T04:34:17.842Z,0
2018-04-30T04:35:27.260Z,0
2018-04-30T04:36:36.934Z,0
2018-04-30T04:37:46.355Z,0
2018-04-30T04:38:55.765Z,0
2018-04-30T04:40:04.936Z,0
2018-04-30T04:41:14.602Z,0
2018-04-30T04:42:24.269Z,0
2018-04-30T04:43:32.917Z,0
2018-04-30T04:44:42.317Z,0
2018-04-30T04:45:51.228Z,0
2018-04-30T04:47:00.657Z,0
2018-04-30T04:48:10.328Z,0
2018-04-30T04:49:19.490Z,0
2018-04-30T04:50:28.930Z,0
2018-04-30T04:51:38.103Z,0
2018-04-30T04:52:47.777Z,0
2018-04-30T04:53:57.693Z,0
2018-04-30T04:55:07.604Z,0
2018-04-30T04:56:16.759Z,0
2018-04-30T04:57:26.425Z,0
2018-04-30T04:58:35.573Z,0
2018-04-30T04:59:45.495Z,0
2018-04-30T05:00:54.903Z,0
2018-04-30T05:02:04.050Z,0
2018-04-30T05:03:12.940Z,0
2018-04-30T05:04:22.860Z,0
2018-04-30T05:05:32.283Z,0
2018-04-30T05:06:41.950Z,0
2018-04-30T05:07:51.402Z,0
2018-04-30T05:09:01.088Z,0
2018-04-30T05:10:10.507Z,0
2018-04-30T05:11:19.938Z,0
2018-04-30T05:12:29.368Z,0
2018-04-30T05:13:38.554Z,0
2018-04-30T05:14:47.462Z,0
2018-04-30T05:15:56.876Z,0
2018-04-30T05:17:06.334Z,0
2018-04-30T05:18:15.754Z,0
2018-04-30T05:19:25.194Z,0
2018-04-30T05:20:34.620Z,0
2018-04-30T05:21:43.769Z,0
2018-04-30T05:22:53.202Z,0
2018-04-30T05:24:02.112Z,0
2018-04-30T05:25:11.539Z,0
2018-04-30T05:26:21.231Z,0
2018-04-30T05:27:30.660Z,0
2018-04-30T05:28:40.391Z,0
2018-04-30T05:29:49.310Z,0
2018-04-30T05:30:59.253Z,0
2018-04-30T05:32:07.896Z,0
2018-04-30T05:33:16.788Z,0
2018-04-30T05:34:25.946Z,0
2018-04-30T05:35:34.932Z,0
2018-04-30T05:36:43.821Z,0
2018-04-30T05:37:52.975Z,0
2018-04-30T05:39:02.395Z,0
2018-04-30T05:40:11.576Z,0
2018-04-30T05:41:20.989Z,0
2018-04-30T05:42:30.459Z,0
2018-04-30T05:43:39.873Z,0
2018-04-30T05:44:49.837Z,4
2018-04-30T05:45:59.252Z,4
2018-04-30T05:47:08.674Z,4
2018-04-30T05:48:17.843Z,0
2018-04-30T05:49:27.309Z,0
2018-04-30T05:50:36.451Z,4
2018-04-30T05:51:46.329Z,4
2018-04-30T05:52:55.796Z,0
2018-04-30T05:54:05.235Z,4
2018-04-30T05:55:15.079Z,4
2018-04-30T05:56:24.540Z,4
2018-04-30T05:57:33.696Z,0
2018-04-30T05:58:43.139Z,0
2018-04-30T05:59:52.303Z,0
2018-04-30T06:01:01.977Z,0
2018-04-30T06:02:10.888Z,0
2018-04-30T06:03:20.329Z,0
2018-04-30T06:04:30.030Z,4
2018-04-30T06:05:39.194Z,0
2018-04-30T06:06:48.797Z,4
2018-04-30T06:07:57.956Z,0
2018-04-30T06:09:07.633Z,4
2018-04-30T06:10:16.803Z,4
2018-04-30T06:11:25.951Z,4
2018-04-30T06:12:35.628Z,4
2018-04-30T06:13:45.293Z,0
2018-04-30T06:14:54.450Z,0
2018-04-30T06:16:03.346Z,0
2018-04-30T06:17:12.771Z,0
2018-04-30T06:18:22.183Z,0
2018-04-30T06:19:31.862Z,4
2018-04-30T06:20:41.547Z,4
2018-04-30T06:21:51.211Z,4
2018-04-30T06:23:00.648Z,0
2018-04-30T06:24:09.796Z,4
2018-04-30T06:25:18.960Z,0
2018-04-30T06:26:27.867Z,0
2018-04-30T06:27:37.317Z,0
2018-04-30T06:28:46.476Z,4
2018-04-30T06:29:56.428Z,4
2018-04-30T06:31:05.612Z,4
2018-04-30T06:32:15.090Z,0
2018-04-30T06:33:24.786Z,0
2018-04-30T06:34:33.704Z,0
2018-04-30T06:35:43.414Z,0
2018-04-30T06:36:52.682Z,0
2018-04-30T06:38:02.359Z,0
2018-04-30T06:39:11.302Z,0
2018-04-30T06:40:20.723Z,0
2018-04-30T06:41:29.918Z,0
2018-04-30T06:42:39.088Z,4
2018-04-30T06:43:48.593Z,0
2018-04-30T06:44:57.787Z,0
2018-04-30T06:46:06.704Z,0
2018-04-30T06:47:16.149Z,4
2018-04-30T06:48:25.849Z,4
2018-04-30T06:49:35.033Z,4
2018-04-30T06:50:44.215Z,4
2018-04-30T06:51:53.640Z,4
2018-04-30T06:53:03.315Z,0
2018-04-30T06:54:12.737Z,0
2018-04-30T06:55:22.413Z,0
2018-04-30T06:56:31.330Z,0
2018-04-30T06:57:41.008Z,4
2018-04-30T06:58:50.938Z,4
2018-04-30T06:59:59.829Z,4
2018-04-30T07:01:09.238Z,4
2018-04-30T07:02:18.396Z,4
2018-04-30T07:03:27.808Z,4
2018-04-30T07:04:37.235Z,4
2018-04-30T07:05:46.720Z,4
2018-04-30T07:06:55.636Z,4
2018-04-30T07:08:04.820Z,4
2018-04-30T07:09:14.729Z,4
2018-04-30T07:10:24.730Z,8
2018-04-30T07:11:33.675Z,4
2018-04-30T07:12:42.857Z,4
2018-04-30T07:13:52.021Z,4
2018-04-30T07:15:01.696Z,4
2018-04-30T07:16:11.124Z,4
2018-04-30T07:17:20.592Z,4
2018-04-30T07:18:30.017Z,0
2018-04-30T07:19:38.921Z,4
2018-04-30T07:20:48.353Z,4
2018-04-30T07:21:57.511Z,4
2018-04-30T07:23:06.687Z,4
2018-04-30T07:24:16.118Z,4
2018-04-30T07:25:25.027Z,0
2018-04-30T07:26:34.959Z,0
2018-04-30T07:27:45.325Z,4
2018-04-30T07:28:55.389Z,4
2018-04-30T07:30:04.581Z,4
2018-04-30T07:31:13.495Z,4
2018-04-30T07:32:22.640Z,4
2018-04-30T07:33:32.059Z,4
2018-04-30T07:34:41.539Z,8
2018-04-30T07:35:51.230Z,8
2018-04-30T07:37:00.664Z,8
2018-04-30T07:38:10.335Z,8
2018-04-30T07:39:19.517Z,8
2018-04-30T07:40:28.690Z,8
2018-04-30T07:41:38.377Z,8
2018-04-30T07:42:48.059Z,8
2018-04-30T07:43:57.232Z,8
2018-04-30T07:45:06.929Z,8
2018-04-30T07:46:16.106Z,4
2018-04-30T07:47:25.016Z,8
2018-04-30T07:48:34.428Z,4
2018-04-30T07:49:44.113Z,4
2018-04-30T07:50:53.829Z,4
2018-04-30T07:52:03.796Z,4
2018-04-30T07:53:13.218Z,0
2018-04-30T07:54:22.381Z,0
2018-04-30T07:55:31.609Z,4
2018-04-30T07:56:41.109Z,4
2018-04-30T07:57:50.260Z,4
2018-04-30T07:58:59.400Z,4
2018-04-30T08:00:09.073Z,4
2018-04-30T08:01:18.743Z,4
2018-04-30T08:02:28.801Z,0
2018-04-30T08:03:38.216Z,0
2018-04-30T08:04:47.909Z,0
2018-04-30T08:05:57.089Z,4
2018-04-30T08:07:06.007Z,4
2018-04-30T08:08:15.457Z,0
2018-04-30T08:09:25.167Z,0
2018-04-30T08:10:34.327Z,4
2018-04-30T08:11:43.487Z,4
2018-04-30T08:12:52.903Z,4
2018-04-30T08:14:02.349Z,4
2018-04-30T08:15:11.536Z,4
2018-04-30T08:16:21.235Z,8
2018-04-30T08:17:30.917Z,8
2018-04-30T08:18:40.337Z,8
2018-04-30T08:19:50.081Z,4
2018-04-30T08:20:59.510Z,8
2018-04-30T08:22:09.212Z,4
2018-04-30T08:23:18.405Z,4
2018-04-30T08:24:27.565Z,4
2018-04-30T08:25:37.096Z,4
2018-04-30T08:26:46.536Z,8
2018-04-30T08:27:56.301Z,8
2018-04-30T08:29:05.989Z,4
2018-04-30T08:30:14.913Z,4
2018-04-30T08:31:23.826Z,8
2018-04-30T08:32:33.250Z,8
2018-04-30T08:33:42.695Z,8
2018-04-30T08:34:51.889Z,8
2018-04-30T08:36:01.054Z,4
2018-04-30T08:37:10.027Z,8
2018-04-30T08:38:19.704Z,8
2018-04-30T08:39:28.881Z,12
2018-04-30T08:40:38.353Z,12
2018-04-30T08:41:48.039Z,12
2018-04-30T08:42:58.045Z,8
2018-04-30T08:44:07.483Z,8
2018-04-30T08:45:16.776Z,8
2018-04-30T08:46:26.460Z,8
2018-04-30T08:47:35.885Z,4
2018-04-30T08:48:45.037Z,4
2018-04-30T08:49:53.948Z,4
2018-04-30T08:51:03.388Z,8
2018-04-30T08:52:12.634Z,4
2018-04-30T08:53:21.872Z,8
2018-04-30T08:54:31.283Z,12
2018-04-30T08:55:40.693Z,12
2018-04-30T08:56:50.430Z,8
2018-04-30T08:58:00.095Z,4
2018-04-30T08:59:09.283Z,4
2018-04-30T09:00:18.831Z,4
2018-04-30T09:01:28.118Z,8
2018-04-30T09:02:37.281Z,8
2018-04-30T09:03:46.173Z,8
2018-04-30T09:04:55.845Z,8
2018-04-30T09:06:04.745Z,8
2018-04-30T09:07:14.252Z,8
2018-04-30T09:08:23.679Z,12
2018-04-30T09:09:33.128Z,8
2018-04-30T09:10:42.899Z,8
2018-04-30T09:11:52.623Z,8
2018-04-30T09:13:02.308Z,8
2018-04-30T09:14:11.726Z,8
2018-04-30T09:15:20.905Z,8
2018-04-30T09:16:30.329Z,8
2018-04-30T09:17:39.753Z,12
2018-04-30T09:18:48.657Z,8
2018-04-30T09:19:58.083Z,8
2018-04-30T09:21:06.977Z,8
2018-04-30T09:22:15.896Z,8
2018-04-30T09:23:25.568Z,8
2018-04-30T09:24:34.728Z,8
2018-04-30T09:25:44.418Z,8
2018-04-30T09:26:53.619Z,8
2018-04-30T09:28:03.372Z,8
2018-04-30T09:29:13.281Z,8
2018-04-30T09:30:22.806Z,4
2018-04-30T09:31:32.479Z,8
2018-04-30T09:32:41.908Z,8
2018-04-30T09:33:51.597Z,8
2018-04-30T09:35:01.513Z,8
2018-04-30T09:36:10.606Z,8
2018-04-30T09:37:19.780Z,8
2018-04-30T09:38:29.482Z,8
2018-04-30T09:39:38.673Z,8
2018-04-30T09:40:48.107Z,8
2018-04-30T09:41:57.554Z,8
2018-04-30T09:43:06.716Z,4
2018-04-30T09:44:16.413Z,4
2018-04-30T09:45:26.108Z,4
2018-04-30T09:46:35.265Z,4
2018-04-30T09:47:44.422Z,4
2018-04-30T09:48:53.863Z,4
2018-04-30T09:50:03.565Z,4
2018-04-30T09:51:12.752Z,4
2018-04-30T09:52:21.671Z,4
2018-04-30T09:53:30.603Z,4
2018-04-30T09:54:40.284Z,4
2018-04-30T09:55:49.186Z,8
2018-04-30T09:56:58.666Z,12
2018-04-30T09:58:08.440Z,16
2018-04-30T09:59:17.606Z,16
2018-04-30T10:00:26.775Z,20
2018-04-30T10:01:35.936Z,16
2018-04-30T10:02:45.342Z,20
2018-04-30T10:03:54.243Z,16
2018-04-30T10:05:03.941Z,16
2018-04-30T10:06:12.845Z,12
2018-04-30T10:07:23.538Z,8
2018-04-30T10:08:32.940Z,8
2018-04-30T10:09:42.625Z,8
2018-04-30T10:10:51.798Z,8
2018-04-30T10:12:01.731Z,8
2018-04-30T10:13:10.917Z,8
2018-04-30T10:14:19.824Z,4
2018-04-30T10:15:28.996Z,4
2018-04-30T10:16:39.246Z,8
2018-04-30T10:17:49.229Z,4
2018-04-30T10:18:58.508Z,8
2018-04-30T10:20:08.454Z,8
2018-04-30T10:21:17.902Z,8
2018-04-30T10:22:27.587Z,8
2018-04-30T10:23:37.038Z,8
2018-04-30T10:24:46.589Z,12
2018-04-30T10:25:56.085Z,8
2018-04-30T10:27:05.556Z,8
2018-04-30T10:28:15.297Z,12
2018-04-30T10:29:24.339Z,16
2018-04-30T10:30:34.091Z,16
2018-04-30T10:31:44.092Z,16
2018-04-30T10:32:54.278Z,16
2018-04-30T10:34:03.791Z,16
2018-04-30T10:35:13.476Z,20
2018-04-30T10:36:22.705Z,16
2018-04-30T10:37:32.432Z,16
2018-04-30T10:38:41.628Z,12
2018-04-30T10:39:51.617Z,12
2018-04-30T10:41:00.568Z,12
2018-04-30T10:42:09.991Z,12
2018-04-30T10:43:19.417Z,8
2018-04-30T10:44:28.641Z,8
2018-04-30T10:45:38.076Z,12
2018-04-30T10:46:47.614Z,8
2018-04-30T10:47:56.557Z,8
2018-04-30T10:49:05.800Z,8
2018-04-30T10:50:14.747Z,8
2018-04-30T10:51:24.187Z,8
2018-04-30T10:52:33.658Z,8
2018-04-30T10:53:43.108Z,8
2018-04-30T10:54:53.078Z,8
2018-04-30T10:56:02.411Z,8
2018-04-30T10:57:12.448Z,8
2018-04-30T10:58:21.923Z,12
2018-04-30T10:59:31.414Z,20
2018-04-30T11:00:40.680Z,24
2018-04-30T11:01:49.877Z,36
2018-04-30T11:02:59.573Z,24
2018-04-30T11:04:09.030Z,16
2018-04-30T11:05:18.299Z,12
2018-04-30T11:06:27.992Z,12
2018-04-30T11:07:37.168Z,12
2018-04-30T11:08:46.341Z,12
2018-04-30T11:09:55.774Z,12
2018-04-30T11:11:05.469Z,12
2018-04-30T11:12:14.476Z,16
2018-04-30T11:13:23.893Z,12
2018-04-30T11:14:33.311Z,12
2018-04-30T11:15:42.767Z,16
2018-04-30T11:16:52.185Z,16
2018-04-30T11:18:01.093Z,16
2018-04-30T11:19:09.977Z,16
2018-04-30T11:20:19.125Z,16
2018-04-30T11:21:28.560Z,16
2018-04-30T11:22:37.983Z,16
2018-04-30T11:23:47.168Z,16
2018-04-30T11:24:56.878Z,16
2018-04-30T11:26:06.325Z,20
2018-04-30T11:27:15.807Z,20
2018-04-30T11:28:25.541Z,16
2018-04-30T11:29:35.248Z,16
2018-04-30T11:30:44.169Z,12
2018-04-30T11:31:53.384Z,12
2018-04-30T11:33:02.611Z,12
2018-04-30T11:34:12.980Z,16
2018-04-30T11:35:22.605Z,12
2018-04-30T11:36:31.284Z,12
2018-04-30T11:37:41.333Z,20
2018-04-30T11:38:51.119Z,24
2018-04-30T11:40:00.675Z,36
2018-04-30T11:41:10.215Z,44
2018-04-30T11:42:19.450Z,44
2018-04-30T11:43:29.232Z,32
2018-04-30T11:44:38.512Z,24
2018-04-30T11:45:48.277Z,40
2018-04-30T11:46:58.088Z,48
2018-04-30T11:48:07.306Z,44
2018-04-30T11:49:16.283Z,40
2018-04-30T11:50:26.341Z,44
2018-04-30T11:51:35.047Z,20
2018-04-30T11:52:44.552Z,44
2018-04-30T11:53:53.804Z,24
2018-04-30T11:55:03.599Z,32
2018-04-30T11:56:13.089Z,20
2018-04-30T11:57:22.329Z,32
2018-04-30T11:58:31.857Z,28
2018-04-30T11:59:41.164Z,24
2018-04-30T12:00:50.650Z,28
2018-04-30T12:02:00.136Z,24
2018-04-30T12:03:09.062Z,16
2018-04-30T12:04:18.281Z,20
2018-04-30T12:05:27.801Z,24
2018-04-30T12:06:37.552Z,24
2018-04-30T12:07:46.523Z,20
2018-04-30T12:08:55.768Z,24
2018-04-30T12:10:05.936Z,24
2018-04-30T12:11:17.027Z,20
2018-04-30T12:12:26.906Z,16
2018-04-30T12:13:35.860Z,16
2018-04-30T12:14:45.641Z,12
2018-04-30T12:15:55.158Z,12
2018-04-30T12:17:04.116Z,12
2018-04-30T12:18:14.211Z,12
2018-04-30T12:19:24.250Z,16
2018-04-30T12:20:33.751Z,16
2018-04-30T12:21:43.593Z,12
2018-04-30T12:22:52.544Z,12
2018-04-30T12:24:02.305Z,16
2018-04-30T12:25:11.824Z,16
2018-04-30T12:26:20.781Z,16
2018-04-30T12:27:30.011Z,16
2018-04-30T12:28:39.738Z,20
2018-04-30T12:29:49.571Z,16
2018-04-30T12:30:59.526Z,16
2018-04-30T12:32:08.784Z,12
2018-04-30T12:33:18.602Z,12
2018-04-30T12:34:28.309Z,16
2018-04-30T12:35:37.555Z,20
2018-04-30T12:36:47.039Z,20
2018-04-30T12:37:56.536Z,24
2018-04-30T12:39:05.463Z,32
2018-04-30T12:40:14.905Z,56
2018-04-30T12:41:24.130Z,68
2018-04-30T12:42:33.082Z,68
2018-04-30T12:43:42.452Z,68
2018-04-30T12:44:52.287Z,64
2018-04-30T12:46:01.647Z,64
2018-04-30T12:47:11.376Z,64
2018-04-30T12:48:21.733Z,64
2018-04-30T12:49:32.155Z,16
2018-04-30T12:50:41.764Z,48
2018-04-30T12:51:50.687Z,72
2018-04-30T12:53:00.153Z,68
2018-04-30T12:54:09.358Z,72
2018-04-30T12:55:19.091Z,44
2018-04-30T12:56:28.814Z,16
2018-04-30T12:57:37.733Z,20
2018-04-30T12:58:47.255Z,52
2018-04-30T12:59:56.967Z,64
2018-04-30T13:01:06.723Z,20
2018-04-30T13:02:16.009Z,16
2018-04-30T13:03:25.211Z,16
2018-04-30T13:04:34.424Z,12
2018-04-30T13:05:43.904Z,12
2018-04-30T13:06:53.426Z,12
2018-04-30T13:08:02.898Z,8
2018-04-30T13:09:12.619Z,8
2018-04-30T13:10:21.614Z,8
2018-04-30T13:11:30.801Z,8
2018-04-30T13:12:40.828Z,8
2018-04-30T13:13:50.591Z,0
2018-04-30T13:15:00.045Z,4
2018-04-30T13:16:09.221Z,4
2018-04-30T13:17:18.915Z,4
2018-04-30T13:18:28.104Z,4
2018-04-30T13:19:37.792Z,4
2018-04-30T13:20:46.942Z,8
2018-04-30T13:21:56.887Z,4
2018-04-30T13:23:06.070Z,8
2018-04-30T13:24:15.509Z,12
2018-04-30T13:25:24.682Z,20
2018-04-30T13:26:34.117Z,44
2018-04-30T13:27:43.300Z,44
2018-04-30T13:28:52.446Z,32
2018-04-30T13:30:02.112Z,64
2018-04-30T13:31:11.041Z,84
2018-04-30T13:32:20.215Z,88
2018-04-30T13:33:29.374Z,88
2018-04-30T13:34:38.800Z,88
2018-04-30T13:35:47.716Z,68
2018-04-30T13:36:57.152Z,16
2018-04-30T13:38:06.339Z,32
2018-04-30T13:39:15.270Z,32
2018-04-30T13:40:24.702Z,88
2018-04-30T13:41:34.139Z,48
2018-04-30T13:42:43.053Z,12
2018-04-30T13:43:52.612Z,12
2018-04-30T13:45:01.793Z,16
2018-04-30T13:46:11.226Z,16
2018-04-30T13:47:20.651Z,16
2018-04-30T13:48:30.354Z,20
2018-04-30T13:49:39.770Z,44
2018-04-30T13:50:48.945Z,44
2018-04-30T13:51:57.863Z,28
2018-04-30T13:53:07.023Z,24
2018-04-30T13:54:16.950Z,36
2018-04-30T13:55:25.878Z,16
2018-04-30T13:56:35.307Z,16
2018-04-30T13:57:44.794Z,16
2018-04-30T13:58:53.965Z,12
2018-04-30T14:00:03.381Z,8
2018-04-30T14:01:12.818Z,8
2018-04-30T14:02:23.007Z,12
2018-04-30T14:03:32.263Z,8
2018-04-30T14:04:41.693Z,8
2018-04-30T14:05:51.641Z,8
2018-04-30T14:07:00.542Z,4
2018-04-30T14:08:09.965Z,0
2018-04-30T14:09:19.651Z,4
2018-04-30T14:10:29.082Z,4
2018-04-30T14:11:38.241Z,4
2018-04-30T14:12:47.659Z,4
2018-04-30T14:13:57.342Z,4
2018-04-30T14:15:07.040Z,4
2018-04-30T14:16:16.206Z,4
2018-04-30T14:17:25.362Z,4
2018-04-30T14:18:35.049Z,4
2018-04-30T14:19:44.726Z,4
2018-04-30T14:20:53.894Z,4
2018-04-30T14:22:03.337Z,8
2018-04-30T14:23:13.030Z,8
2018-04-30T14:24:21.925Z,12
2018-04-30T14:25:31.354Z,12
2018-04-30T14:26:40.531Z,12
2018-04-30T14:27:49.694Z,12
2018-04-30T14:28:59.125Z,8
2018-04-30T14:30:08.298Z,4
2018-04-30T14:31:18.280Z,4
2018-04-30T14:32:27.945Z,12
2018-04-30T14:33:37.367Z,12
2018-04-30T14:34:46.776Z,12
2018-04-30T14:35:56.202Z,8
2018-04-30T14:37:05.376Z,8
2018-04-30T14:38:14.606Z,8
2018-04-30T14:39:23.769Z,8
2018-04-30T14:40:33.189Z,8
2018-04-30T14:41:42.362Z,12
2018-04-30T14:42:51.514Z,12
2018-04-30T14:44:00.936Z,8
2018-04-30T14:45:10.085Z,4
2018-04-30T14:46:19.006Z,4
2018-04-30T14:47:28.188Z,8
2018-04-30T14:48:37.861Z,4
2018-04-30T14:49:47.536Z,4
2018-04-30T14:50:57.466Z,8
2018-04-30T14:52:07.168Z,4
2018-04-30T14:53:17.126Z,8
2018-04-30T14:54:26.555Z,4
2018-04-30T14:55:35.773Z,8
2018-04-30T14:56:45.923Z,8
2018-04-30T14:57:55.416Z,8
2018-04-30T14:59:05.357Z,8
2018-04-30T15:00:15.295Z,8
2018-04-30T15:01:24.217Z,8
2018-04-30T15:02:33.389Z,12
2018-04-30T15:03:42.289Z,12
2018-04-30T15:04:51.214Z,16
2018-04-30T15:06:00.371Z,16
2018-04-30T15:07:09.302Z,20
2018-04-30T15:08:18.725Z,24
2018-04-30T15:09:28.402Z,28
2018-04-30T15:10:38.351Z,24
2018-04-30T15:11:48.019Z,20
2018-04-30T15:12:57.175Z,20
2018-04-30T15:14:06.603Z,20
2018-04-30T15:15:16.287Z,16
2018-04-30T15:16:25.200Z,20
2018-04-30T15:17:34.643Z,20
2018-04-30T15:18:43.802Z,16
2018-04-30T15:19:53.242Z,20
2018-04-30T15:21:02.424Z,20
2018-04-30T15:22:11.593Z,16
2018-04-30T15:23:20.241Z,16
2018-04-30T15:24:29.946Z,16
2018-04-30T15:25:39.364Z,16
2018-04-30T15:26:49.038Z,16
2018-04-30T15:27:58.283Z,20
2018-04-30T15:29:07.452Z,20
2018-04-30T15:30:17.135Z,20
2018-04-30T15:31:26.564Z,20
2018-04-30T15:32:35.982Z,16
2018-04-30T15:33:45.135Z,16
2018-04-30T15:34:54.296Z,12
2018-04-30T15:36:03.768Z,12
2018-04-30T15:37:13.191Z,8
2018-04-30T15:38:23.038Z,4
2018-04-30T15:39:32.717Z,4
2018-04-30T15:40:41.704Z,12
2018-04-30T15:41:51.635Z,12
2018-04-30T15:43:01.073Z,8
2018-04-30T15:44:10.518Z,12
2018-04-30T15:45:19.682Z,12
2018-04-30T15:46:29.647Z,8
2018-04-30T15:47:39.392Z,12
2018-04-30T15:48:49.848Z,12
2018-04-30T15:49:59.301Z,12
2018-04-30T15:51:08.219Z,12
2018-04-30T15:52:17.897Z,12
2018-04-30T15:53:27.578Z,12
2018-04-30T15:54:37.233Z,12
2018-04-30T15:55:47.049Z,12
2018-04-30T15:56:56.497Z,12
2018-04-30T15:58:06.035Z,8
2018-04-30T15:59:15.212Z,12
2018-04-30T16:00:24.892Z,8
2018-04-30T16:01:34.816Z,8
2018-04-30T16:02:44.239Z,12
2018-04-30T16:03:53.904Z,8
2018-04-30T16:05:03.345Z,12
2018-04-30T16:06:13.017Z,12
2018-04-30T16:07:21.922Z,12
2018-04-30T16:08:31.086Z,12
2018-04-30T16:09:40.568Z,8
2018-04-30T16:10:50.494Z,8
2018-04-30T16:11:59.377Z,8
2018-04-30T16:13:08.798Z,8
2018-04-30T16:14:19.341Z,8
2018-04-30T16:15:29.474Z,4
2018-04-30T16:16:38.357Z,4
2018-04-30T16:17:47.520Z,8
2018-04-30T16:18:56.996Z,4
2018-04-30T16:20:06.146Z,4
2018-04-30T16:21:15.819Z,4
2018-04-30T16:22:24.962Z,4
2018-04-30T16:23:34.109Z,4
2018-04-30T16:24:43.281Z,4
2018-04-30T16:25:52.442Z,8
2018-04-30T16:27:01.872Z,4
2018-04-30T16:28:11.314Z,4
2018-04-30T16:29:20.480Z,4
2018-04-30T16:30:29.908Z,4
2018-04-30T16:31:39.055Z,8
2018-04-30T16:32:48.990Z,8
2018-04-30T16:33:57.934Z,8
2018-04-30T16:35:07.104Z,4
2018-04-30T16:36:17.218Z,4
2018-04-30T16:37:26.108Z,8
2018-04-30T16:38:35.257Z,4
2018-04-30T16:39:44.775Z,8
2018-04-30T16:40:54.303Z,4
2018-04-30T16:42:04.011Z,4
2018-04-30T16:43:12.961Z,4
2018-04-30T16:44:22.372Z,4
2018-04-30T16:45:31.543Z,4
2018-04-30T16:46:40.700Z,8
2018-04-30T16:47:50.391Z,4
2018-04-30T16:48:59.645Z,4
2018-04-30T16:50:08.579Z,0
2018-04-30T16:51:18.006Z,4
2018-04-30T16:52:26.926Z,4
2018-04-30T16:53:36.616Z,4
2018-04-30T16:54:46.050Z,4
2018-04-30T16:55:55.521Z,4